sensor_id;sensor_type;location;lat;lon;timestamp;temperature;humidity
25436;DHT22;13363;52.772;-3.890;2023-07-16T09:21:42;15.10;99.90
25436;DHT22;13363;52.772;-3.890;2023-07-16T09:24:08;15.10;99.90
25436;DHT22;13363;52.772;-3.890;2023-07-16T09:26:38;14.20;99.90
25436;DHT22;13363;52.772;-3.890;2023-07-16T09:29:07;14.90;99.90
25436;DHT22;13363;52.772;-3.890;2023-07-16T09:31:35;14.90;99.90
25436;DHT22;13363;52.772;-3.890;2023-07-16T09:34:01;14.90;99.90
25436;DHT22;13363;52.772;-3.890;2023-07-16T09:36:27;14.80;99.90
25436;DHT22;13363;52.772;-3.890;2023-07-16T09:38:53;14.80;99.90
25436;DHT22;13363;52.772;-3.890;2023-07-16T09:41:23;14.90;99.90
25436;DHT22;13363;52.772;-3.890;2023-07-16T09:43:50;14.90;99.90
25436;DHT22;13363;52.772;-3.890;2023-07-16T10:48:31;16.20;99.90
25436;DHT22;13363;52.772;-3.890;2023-07-16T10:50:57;16.20;99.90
25436;DHT22;13363;52.772;-3.890;2023-07-16T10:53:22;16.10;99.90
25436;DHT22;13363;52.772;-3.890;2023-07-16T10:55:48;16.10;99.90
25436;DHT22;13363;52.772;-3.890;2023-07-16T11:00:41;16.10;99.90
25436;DHT22;13363;52.772;-3.890;2023-07-16T11:03:07;16.20;99.90
25436;DHT22;13363;52.772;-3.890;2023-07-16T11:05:34;16.20;99.90
25436;DHT22;13363;52.772;-3.890;2023-07-16T11:10:29;17.00;99.90
25436;DHT22;13363;52.772;-3.890;2023-07-16T11:15:32;16.80;99.90
25436;DHT22;13363;52.772;-3.890;2023-07-16T11:17:58;16.40;99.90
25436;DHT22;13363;52.772;-3.890;2023-07-16T11:22:51;16.30;99.90
25436;DHT22;13363;52.772;-3.890;2023-07-16T11:25:16;16.10;99.90
25436;DHT22;13363;52.772;-3.890;2023-07-16T11:27:43;16.30;99.90
25436;DHT22;13363;52.772;-3.890;2023-07-16T11:30:10;16.90;99.90
25436;DHT22;13363;52.772;-3.890;2023-07-16T11:32:43;17.10;99.90
25436;DHT22;13363;52.772;-3.890;2023-07-16T11:35:15;17.10;99.90
25436;DHT22;13363;52.772;-3.890;2023-07-16T11:40:09;16.70;99.90
25436;DHT22;13363;52.772;-3.890;2023-07-16T11:42:37;16.70;99.90
25436;DHT22;13363;52.772;-3.890;2023-07-16T11:45:04;16.70;99.90
25436;DHT22;13363;52.772;-3.890;2023-07-16T11:47:31;16.70;99.90
25436;DHT22;13363;52.772;-3.890;2023-07-16T11:49:57;16.70;99.90
25436;DHT22;13363;52.772;-3.890;2023-07-16T11:52:26;17.20;99.90
25436;DHT22;13363;52.772;-3.890;2023-07-16T11:54:53;17.20;99.90
25436;DHT22;13363;52.772;-3.890;2023-07-16T11:57:19;16.90;99.90
25436;DHT22;13363;52.772;-3.890;2023-07-16T11:59:45;16.90;99.90
25436;DHT22;13363;52.772;-3.890;2023-07-16T12:11:56;18.10;99.90
25436;DHT22;13363;52.772;-3.890;2023-07-16T12:19:15;18.00;99.90
25436;DHT22;13363;52.772;-3.890;2023-07-16T12:29:00;17.60;99.90
25436;DHT22;13363;52.772;-3.890;2023-07-16T12:46:07;17.60;99.90
25436;DHT22;13363;52.772;-3.890;2023-07-16T12:50:59;17.90;99.90
25436;DHT22;13363;52.772;-3.890;2023-07-16T12:53:25;17.80;99.90
25436;DHT22;13363;52.772;-3.890;2023-07-16T12:55:52;17.60;99.90
25436;DHT22;13363;52.772;-3.890;2023-07-16T12:58:18;17.60;99.90
25436;DHT22;13363;52.772;-3.890;2023-07-16T13:00:44;17.60;99.90
25436;DHT22;13363;52.772;-3.890;2023-07-16T13:05:46;18.00;99.90
25436;DHT22;13363;52.772;-3.890;2023-07-16T13:10:39;17.60;99.90
25436;DHT22;13363;52.772;-3.890;2023-07-16T13:20:26;17.60;99.90
25436;DHT22;13363;52.772;-3.890;2023-07-16T13:30:10;17.30;99.90
25436;DHT22;13363;52.772;-3.890;2023-07-16T13:35:29;17.80;99.90
25436;DHT22;13363;52.772;-3.890;2023-07-16T13:52:34;17.80;99.90
25436;DHT22;13363;52.772;-3.890;2023-07-16T13:55:04;18.20;99.90
25436;DHT22;13363;52.772;-3.890;2023-07-16T14:07:18;18.70;99.90
25436;DHT22;13363;52.772;-3.890;2023-07-16T14:12:14;18.00;99.90
25436;DHT22;13363;52.772;-3.890;2023-07-16T14:24:27;17.60;99.90
25436;DHT22;13363;52.772;-3.890;2023-07-16T14:34:12;18.00;99.90
25436;DHT22;13363;52.772;-3.890;2023-07-16T14:41:30;17.70;99.90
25436;DHT22;13363;52.772;-3.890;2023-07-16T14:56:10;18.00;99.90
25436;DHT22;13363;52.772;-3.890;2023-07-16T14:58:36;17.80;99.90
25436;DHT22;13363;52.772;-3.890;2023-07-16T15:10:56;17.90;99.90
25436;DHT22;13363;52.772;-3.890;2023-07-16T15:15:51;17.80;99.90
25436;DHT22;13363;52.772;-3.890;2023-07-16T15:18:18;17.60;99.90
25436;DHT22;13363;52.772;-3.890;2023-07-16T15:25:40;17.40;99.90
25436;DHT22;13363;52.772;-3.890;2023-07-16T15:28:06;17.60;99.90
25436;DHT22;13363;52.772;-3.890;2023-07-16T15:30:31;17.60;99.90
25436;DHT22;13363;52.772;-3.890;2023-07-16T15:32:57;17.50;99.90
25436;DHT22;13363;52.772;-3.890;2023-07-16T15:35:23;17.40;99.90
25436;DHT22;13363;52.772;-3.890;2023-07-16T15:37:49;17.30;99.90
25436;DHT22;13363;52.772;-3.890;2023-07-16T15:40:15;17.20;99.90
25436;DHT22;13363;52.772;-3.890;2023-07-16T15:42:42;17.20;99.90
25436;DHT22;13363;52.772;-3.890;2023-07-16T15:45:10;17.20;99.90
25436;DHT22;13363;52.772;-3.890;2023-07-16T15:52:31;17.10;99.90
25436;DHT22;13363;52.772;-3.890;2023-07-16T15:59:49;17.10;99.90
25436;DHT22;13363;52.772;-3.890;2023-07-16T16:02:15;17.20;99.90
25436;DHT22;13363;52.772;-3.890;2023-07-16T16:04:41;16.90;99.90
25436;DHT22;13363;52.772;-3.890;2023-07-16T16:09:33;16.70;99.90
25436;DHT22;13363;52.772;-3.890;2023-07-16T16:11:58;16.90;99.90
25436;DHT22;13363;52.772;-3.890;2023-07-16T16:14:33;16.90;99.90
25436;DHT22;13363;52.772;-3.890;2023-07-16T16:16:59;16.70;99.90
25436;DHT22;13363;52.772;-3.890;2023-07-16T16:19:25;16.50;99.90
25436;DHT22;13363;52.772;-3.890;2023-07-16T16:21:51;16.50;99.90
25436;DHT22;13363;52.772;-3.890;2023-07-16T16:24:17;16.50;99.90
25436;DHT22;13363;52.772;-3.890;2023-07-16T16:26:43;16.80;99.90
25436;DHT22;13363;52.772;-3.890;2023-07-16T16:29:08;17.10;99.90
25436;DHT22;13363;52.772;-3.890;2023-07-16T16:31:34;16.90;99.90
25436;DHT22;13363;52.772;-3.890;2023-07-16T16:34:00;16.70;99.90
25436;DHT22;13363;52.772;-3.890;2023-07-16T16:36:26;16.70;99.90
25436;DHT22;13363;52.772;-3.890;2023-07-16T16:38:52;16.70;99.90
25436;DHT22;13363;52.772;-3.890;2023-07-16T16:41:18;16.80;99.90
25436;DHT22;13363;52.772;-3.890;2023-07-16T16:43:43;16.60;99.90
25436;DHT22;13363;52.772;-3.890;2023-07-16T16:46:09;16.50;99.90
25436;DHT22;13363;52.772;-3.890;2023-07-16T16:48:35;16.50;99.90
25436;DHT22;13363;52.772;-3.890;2023-07-16T16:55:56;16.70;99.90
25436;DHT22;13363;52.772;-3.890;2023-07-16T16:58:23;16.80;99.90
25436;DHT22;13363;52.772;-3.890;2023-07-16T17:00:51;16.80;99.90
25436;DHT22;13363;52.772;-3.890;2023-07-16T17:03:19;16.70;99.90
25436;DHT22;13363;52.772;-3.890;2023-07-16T17:05:48;16.70;99.90
25436;DHT22;13363;52.772;-3.890;2023-07-16T17:08:14;16.60;99.90
25436;DHT22;13363;52.772;-3.890;2023-07-16T17:10:40;16.50;99.90
25436;DHT22;13363;52.772;-3.890;2023-07-16T17:13:06;16.40;99.90
25436;DHT22;13363;52.772;-3.890;2023-07-16T17:15:32;16.30;99.90
25436;DHT22;13363;52.772;-3.890;2023-07-16T17:17:58;16.30;99.90
25436;DHT22;13363;52.772;-3.890;2023-07-16T17:20:25;16.40;99.90
25436;DHT22;13363;52.772;-3.890;2023-07-16T17:22:50;16.30;99.90
25436;DHT22;13363;52.772;-3.890;2023-07-16T17:25:16;16.30;99.90
25436;DHT22;13363;52.772;-3.890;2023-07-16T17:27:43;16.30;99.90
25436;DHT22;13363;52.772;-3.890;2023-07-16T17:30:10;16.20;99.90
25436;DHT22;13363;52.772;-3.890;2023-07-16T17:32:36;16.30;99.90
25436;DHT22;13363;52.772;-3.890;2023-07-16T17:35:02;16.30;99.90
25436;DHT22;13363;52.772;-3.890;2023-07-16T17:37:28;16.20;99.90
25436;DHT22;13363;52.772;-3.890;2023-07-16T17:39:56;16.20;99.90
25436;DHT22;13363;52.772;-3.890;2023-07-16T17:42:22;16.20;99.90
25436;DHT22;13363;52.772;-3.890;2023-07-16T17:44:48;16.10;99.90
25436;DHT22;13363;52.772;-3.890;2023-07-16T17:47:14;16.00;99.90
25436;DHT22;13363;52.772;-3.890;2023-07-16T17:49:41;16.20;99.90
25436;DHT22;13363;52.772;-3.890;2023-07-16T17:52:07;16.20;99.90
25436;DHT22;13363;52.772;-3.890;2023-07-16T17:54:33;16.10;99.90
25436;DHT22;13363;52.772;-3.890;2023-07-16T17:57:03;16.10;99.90
25436;DHT22;13363;52.772;-3.890;2023-07-16T18:01:57;16.10;99.90
25436;DHT22;13363;52.772;-3.890;2023-07-16T18:04:23;16.10;99.90
25436;DHT22;13363;52.772;-3.890;2023-07-16T18:06:48;15.90;99.90
25436;DHT22;13363;52.772;-3.890;2023-07-16T18:09:14;16.00;99.90
25436;DHT22;13363;52.772;-3.890;2023-07-16T18:11:41;16.00;99.90
25436;DHT22;13363;52.772;-3.890;2023-07-16T18:14:08;15.90;99.90
25436;DHT22;13363;52.772;-3.890;2023-07-16T18:16:36;15.80;99.90
25436;DHT22;13363;52.772;-3.890;2023-07-16T18:19:02;15.80;99.90
25436;DHT22;13363;52.772;-3.890;2023-07-16T18:21:31;15.90;99.90
25436;DHT22;13363;52.772;-3.890;2023-07-16T18:23:59;16.00;99.90
25436;DHT22;13363;52.772;-3.890;2023-07-16T18:26:25;16.00;99.90
25436;DHT22;13363;52.772;-3.890;2023-07-16T18:28:51;16.00;99.90
25436;DHT22;13363;52.772;-3.890;2023-07-16T18:31:17;16.10;99.90
25436;DHT22;13363;52.772;-3.890;2023-07-16T18:36:09;16.00;99.90
25436;DHT22;13363;52.772;-3.890;2023-07-16T18:38:35;16.00;99.90
25436;DHT22;13363;52.772;-3.890;2023-07-16T18:43:27;16.00;99.90
25436;DHT22;13363;52.772;-3.890;2023-07-16T18:48:20;16.00;99.90
25436;DHT22;13363;52.772;-3.890;2023-07-16T18:55:38;15.90;99.90
25436;DHT22;13363;52.772;-3.890;2023-07-16T18:58:04;15.90;99.90
25436;DHT22;13363;52.772;-3.890;2023-07-16T19:00:30;15.80;99.90
25436;DHT22;13363;52.772;-3.890;2023-07-16T19:05:22;15.80;99.90
25436;DHT22;13363;52.772;-3.890;2023-07-16T19:07:47;15.70;99.90
25436;DHT22;13363;52.772;-3.890;2023-07-16T19:10:14;15.70;99.90
25436;DHT22;13363;52.772;-3.890;2023-07-16T19:12:40;15.70;99.90
25436;DHT22;13363;52.772;-3.890;2023-07-16T19:15:07;15.60;99.90
25436;DHT22;13363;52.772;-3.890;2023-07-16T19:17:33;15.80;99.90
25436;DHT22;13363;52.772;-3.890;2023-07-16T19:19:59;15.70;99.90
25436;DHT22;13363;52.772;-3.890;2023-07-16T19:22:25;15.70;99.90
25436;DHT22;13363;52.772;-3.890;2023-07-16T19:24:55;15.50;99.90
25436;DHT22;13363;52.772;-3.890;2023-07-16T19:27:22;15.40;99.90
25436;DHT22;13363;52.772;-3.890;2023-07-16T19:29:49;15.40;99.90
25436;DHT22;13363;52.772;-3.890;2023-07-16T19:32:14;15.50;99.90
25436;DHT22;13363;52.772;-3.890;2023-07-16T19:34:40;17.30;99.90
25436;DHT22;13363;52.772;-3.890;2023-07-16T19:37:08;16.30;99.90
25436;DHT22;13363;52.772;-3.890;2023-07-16T19:44:27;15.50;99.90
25436;DHT22;13363;52.772;-3.890;2023-07-16T19:46:52;15.40;99.90
25436;DHT22;13363;52.772;-3.890;2023-07-16T19:49:19;15.40;99.90
25436;DHT22;13363;52.772;-3.890;2023-07-16T19:51:45;15.40;99.90
25436;DHT22;13363;52.772;-3.890;2023-07-16T19:54:10;15.40;99.90
25436;DHT22;13363;52.772;-3.890;2023-07-16T19:59:04;15.50;99.90
25436;DHT22;13363;52.772;-3.890;2023-07-16T20:06:22;15.50;99.90
25436;DHT22;13363;52.772;-3.890;2023-07-16T20:08:49;15.40;99.90
25436;DHT22;13363;52.772;-3.890;2023-07-16T20:16:07;15.10;99.90
25436;DHT22;13363;52.772;-3.890;2023-07-16T20:28:19;15.00;99.90
25436;DHT22;13363;52.772;-3.890;2023-07-16T20:30:45;14.90;99.90
25436;DHT22;13363;52.772;-3.890;2023-07-16T20:33:11;14.80;99.90
25436;DHT22;13363;52.772;-3.890;2023-07-16T20:35:37;14.70;99.90
25436;DHT22;13363;52.772;-3.890;2023-07-16T20:38:03;14.50;99.90
25436;DHT22;13363;52.772;-3.890;2023-07-16T20:40:30;14.50;99.90
25436;DHT22;13363;52.772;-3.890;2023-07-16T20:45:24;14.40;99.90
25436;DHT22;13363;52.772;-3.890;2023-07-16T20:47:51;14.40;99.90
25436;DHT22;13363;52.772;-3.890;2023-07-16T20:50:19;14.40;99.90
25436;DHT22;13363;52.772;-3.890;2023-07-16T20:52:50;14.30;99.90
25436;DHT22;13363;52.772;-3.890;2023-07-16T20:55:16;14.40;99.90
25436;DHT22;13363;52.772;-3.890;2023-07-16T20:57:42;14.40;99.90
25436;DHT22;13363;52.772;-3.890;2023-07-16T21:00:10;14.50;99.90
25436;DHT22;13363;52.772;-3.890;2023-07-16T21:02:41;14.50;99.90
25436;DHT22;13363;52.772;-3.890;2023-07-16T21:05:07;14.60;99.90
25436;DHT22;13363;52.772;-3.890;2023-07-16T21:07:34;14.60;99.90
25436;DHT22;13363;52.772;-3.890;2023-07-16T21:19:50;14.70;99.90
25436;DHT22;13363;52.772;-3.890;2023-07-16T21:22:21;14.70;99.90
25436;DHT22;13363;52.772;-3.890;2023-07-16T21:24:48;14.70;99.90
25436;DHT22;13363;52.772;-3.890;2023-07-16T21:27:24;14.80;99.90
25436;DHT22;13363;52.772;-3.890;2023-07-16T21:32:16;14.80;99.90
25436;DHT22;13363;52.772;-3.890;2023-07-16T21:34:42;14.80;99.90
25436;DHT22;13363;52.772;-3.890;2023-07-16T21:42:00;14.70;99.90
25436;DHT22;13363;52.772;-3.890;2023-07-16T21:44:26;14.70;99.90
25436;DHT22;13363;52.772;-3.890;2023-07-16T21:46:52;14.80;99.90
25436;DHT22;13363;52.772;-3.890;2023-07-16T21:49:18;14.80;99.90
25436;DHT22;13363;52.772;-3.890;2023-07-16T21:51:43;14.80;99.90
25436;DHT22;13363;52.772;-3.890;2023-07-16T21:54:10;14.70;99.90
25436;DHT22;13363;52.772;-3.890;2023-07-16T21:59:02;14.70;99.90
25436;DHT22;13363;52.772;-3.890;2023-07-16T22:01:29;14.80;99.90
25436;DHT22;13363;52.772;-3.890;2023-07-16T22:03:55;14.80;99.90
25436;DHT22;13363;52.772;-3.890;2023-07-16T22:06:21;14.80;99.90
25436;DHT22;13363;52.772;-3.890;2023-07-16T22:08:47;14.80;99.90
25436;DHT22;13363;52.772;-3.890;2023-07-16T22:16:05;14.90;99.90
25436;DHT22;13363;52.772;-3.890;2023-07-16T22:23:25;15.00;99.90
25436;DHT22;13363;52.772;-3.890;2023-07-16T22:25:51;15.00;99.90
25436;DHT22;13363;52.772;-3.890;2023-07-16T22:28:17;15.00;99.90
25436;DHT22;13363;52.772;-3.890;2023-07-16T22:30:43;15.10;99.90
25436;DHT22;13363;52.772;-3.890;2023-07-16T22:33:09;15.00;99.90
25436;DHT22;13363;52.772;-3.890;2023-07-16T22:35:35;15.00;99.90
25436;DHT22;13363;52.772;-3.890;2023-07-16T22:38:01;15.00;99.90
25436;DHT22;13363;52.772;-3.890;2023-07-16T22:40:27;15.00;99.90
25436;DHT22;13363;52.772;-3.890;2023-07-16T22:45:19;14.90;99.90
25436;DHT22;13363;52.772;-3.890;2023-07-16T22:47:44;14.90;99.90
25436;DHT22;13363;52.772;-3.890;2023-07-16T22:50:10;14.90;99.90
25436;DHT22;13363;52.772;-3.890;2023-07-16T22:55:03;14.90;99.90
25436;DHT22;13363;52.772;-3.890;2023-07-16T22:57:29;14.90;99.90
25436;DHT22;13363;52.772;-3.890;2023-07-16T23:07:13;15.00;99.90
25436;DHT22;13363;52.772;-3.890;2023-07-16T23:09:40;15.00;99.90
25436;DHT22;13363;52.772;-3.890;2023-07-16T23:24:18;14.90;99.90
25436;DHT22;13363;52.772;-3.890;2023-07-16T23:26:44;14.80;99.90
25436;DHT22;13363;52.772;-3.890;2023-07-16T23:29:10;14.90;99.90
25436;DHT22;13363;52.772;-3.890;2023-07-16T23:34:02;14.90;99.90
25436;DHT22;13363;52.772;-3.890;2023-07-16T23:36:28;14.90;99.90
25436;DHT22;13363;52.772;-3.890;2023-07-16T23:38:54;15.00;99.90
25436;DHT22;13363;52.772;-3.890;2023-07-16T23:41:20;14.90;99.90
25436;DHT22;13363;52.772;-3.890;2023-07-16T23:43:45;15.00;99.90
25436;DHT22;13363;52.772;-3.890;2023-07-16T23:46:11;15.00;99.90
25436;DHT22;13363;52.772;-3.890;2023-07-16T23:48:37;15.00;99.90
25436;DHT22;13363;52.772;-3.890;2023-07-16T23:51:03;15.00;99.90
25436;DHT22;13363;52.772;-3.890;2023-07-16T23:53:29;15.00;99.90
25436;DHT22;13363;52.772;-3.890;2023-07-16T23:55:55;15.00;99.90
